KMCC/MCC METAR and TAF weather

Enter ICAO airport designator
Station Type Date Time Source
KMCC METAR 2021/05/15 01:15 UTC NOAA

KMCC 150115Z AUTO 18015KT 10SM CLR 24/10 A2975 RMK AO2


Station Type Date Time Source
KMCC Decoded METAR 2021/05/15 01:15 UTC NOAA

Sacramento, McClellan Airfield Airport, CA, United States (KMCC) 38-40N 121-24W
May 14, 2021 - 09:15 PM EDT / 2021.05.15 0115 UTC
Wind: from the S (180 degrees) at 17 MPH (15 KT):0
Visibility: 10 mile(s):0
Sky conditions: clear
Temperature: 75 F (24 C)
Dew Point: 50 F (10 C)
Relative Humidity: 41%
Pressure (altimeter): 29.75 in. Hg (1007 hPa)
ob: KMCC 150115Z AUTO 18015KT 10SM CLR 24/10 A2975 RMK AO2
cycle: 1

Station Type Date Time Source
KMCC TAF 2021/05/14 18:44 UTC NOAA

TAF KMCC 141735Z 1418/1518 19010KT P6SM SKC
FM142200 19013G21KT P6SM SCT250
FM151000 17010KT P6SM BKN100

Example: see airport list